Time;durP1;ratioP1;P1;durP2;ratioP2;P2;SDS_P1;SDS_P2;PMS_P1;PMS_P2;Temp;Humidity;BMP_temperature;BMP_pressure;BME280_temperature;BME280_humidity;BME280_pressure;Samples;Min_cycle;Max_cycle;Signal;HPM_P1;HPM_P2
2022/12/04 00:02:10;;;;;;;12.20;9.93;;;;;;;-3.94;86.84;101990.36;1729235;81;20996;-77
2022/12/04 00:04:37;;;;;;;14.70;10.10;;;;;;;-3.93;86.78;101989.38;1717523;80;21359;-73
2022/12/04 00:07:03;;;;;;;13.50;9.80;;;;;;;-3.89;86.68;101994.00;1724823;80;21090;-74
2022/12/04 00:09:31;;;;;;;11.73;9.33;;;;;;;-3.86;86.40;101988.52;1728897;82;21238;-74
2022/12/04 00:11:57;;;;;;;13.93;9.17;;;;;;;-3.84;86.09;101995.38;1724061;81;21007;-69
2022/12/04 00:14:24;;;;;;;13.70;8.23;;;;;;;-3.88;85.37;101996.50;1706818;81;21043;-70
2022/12/04 00:16:51;;;;;;;13.17;8.87;;;;;;;-3.87;85.32;101987.68;1730534;81;21133;-72
2022/12/04 00:19:18;;;;;;;12.30;9.90;;;;;;;-3.88;85.39;102000.44;1720199;82;21527;-69
2022/12/04 00:21:45;;;;;;;12.20;8.33;;;;;;;-3.84;85.44;101991.44;1728533;81;21124;-73
2022/12/04 00:24:11;;;;;;;14.60;10.13;;;;;;;-3.79;85.31;101989.32;1710018;81;21064;-73
2022/12/04 00:26:38;;;;;;;15.97;10.80;;;;;;;-3.83;84.85;101993.10;1722278;81;21021;-74
2022/12/04 00:29:06;;;;;;;11.20;8.73;;;;;;;-3.87;84.93;101997.34;1702318;82;21117;-75
2022/12/04 00:31:32;;;;;;;14.43;8.73;;;;;;;-3.85;85.14;101995.01;1728882;81;21041;-76
2022/12/04 00:33:58;;;;;;;12.10;8.73;;;;;;;-3.83;84.93;102005.40;1725169;81;21304;-73
2022/12/04 00:36:26;;;;;;;13.33;9.53;;;;;;;-3.87;84.86;102002.60;1726352;80;21090;-71
2022/12/04 00:38:53;;;;;;;12.77;9.90;;;;;;;-3.89;84.97;102003.20;1739391;81;21538;-70
2022/12/04 00:41:23;;;;;;;11.57;8.87;;;;;;;-3.92;85.06;102005.53;1722748;81;21022;-70
2022/12/04 00:43:50;;;;;;;11.23;8.87;;;;;;;-3.93;85.16;101997.27;1727950;81;21130;-70
2022/12/04 00:46:17;;;;;;;15.13;9.80;;;;;;;-3.99;85.37;101996.37;1711266;82;21807;-71
2022/12/04 00:51:39;;;;;;;14.90;10.37;;;;;;;-4.12;86.00;102012.08;1653136;82;21140;-71
2022/12/04 00:54:06;;;;;;;14.87;10.20;;;;;;;-4.10;86.04;102005.42;1685905;83;26112;-71
2022/12/04 00:56:33;;;;;;;15.60;10.43;;;;;;;-4.07;85.98;102014.41;1701301;83;21264;-71
2022/12/04 00:59:00;;;;;;;13.53;8.83;;;;;;;-4.03;86.05;102008.85;1704500;83;21850;-72
2022/12/04 01:01:27;;;;;;;11.50;7.97;;;;;;;-3.98;85.88;102010.72;1706356;83;21093;-73
2022/12/04 01:03:54;;;;;;;17.50;11.20;;;;;;;-4.06;85.60;102014.31;1703796;83;21024;-72
2022/12/04 01:06:27;;;;;;;14.10;10.53;;;;;;;-4.11;85.69;102020.80;1696198;83;21147;-73
2022/12/04 01:08:55;;;;;;;11.77;8.27;;;;;;;-4.18;85.97;102021.69;1709066;83;21063;-72
2022/12/04 01:11:22;;;;;;;12.13;9.10;;;;;;;-4.18;86.27;102014.27;1705952;83;21112;-78
2022/12/04 01:13:51;;;;;;;14.33;10.50;;;;;;;-4.14;86.27;102014.44;1701084;83;21181;-79
2022/12/04 01:16:21;;;;;;;15.17;10.13;;;;;;;-4.19;86.08;102019.15;1692962;83;21117;-78
2022/12/04 01:18:48;;;;;;;13.73;10.30;;;;;;;-4.18;86.28;102015.12;1701143;83;21034;-81
2022/12/04 01:21:15;;;;;;;13.17;10.50;;;;;;;-4.15;86.22;102014.06;1711239;83;21101;-78
2022/12/04 01:23:43;;;;;;;10.57;8.10;;;;;;;-4.17;86.10;102008.90;1694476;82;21260;-78
2022/12/04 01:26:09;;;;;;;14.93;9.60;;;;;;;-4.20;86.21;102013.05;1686871;83;21094;-76
2022/12/04 01:28:36;;;;;;;14.70;12.27;;;;;;;-4.23;86.25;102013.25;1672124;84;21043;-78
2022/12/04 01:31:10;;;;;;;19.53;11.30;;;;;;;-4.20;86.35;102014.36;1667025;84;21107;-74
2022/12/04 01:33:38;;;;;;;16.27;11.03;;;;;;;-4.19;86.24;102013.42;1703572;83;22114;-76
2022/12/04 01:36:07;;;;;;;16.63;11.80;;;;;;;-4.22;86.33;102013.60;1708604;83;21257;-77
2022/12/04 01:38:34;;;;;;;12.93;10.17;;;;;;;-4.20;86.53;102016.98;1710056;83;21681;-77
2022/12/04 01:41:01;;;;;;;16.40;12.57;;;;;;;-4.24;86.60;102013.34;1688383;83;21500;-78
2022/12/04 01:43:30;;;;;;;9.70;8.03;;;;;;;-4.31;86.65;102014.19;1670982;84;22079;-72
2022/12/04 01:45:58;;;;;;;10.90;8.63;;;;;;;-4.37;86.83;102022.95;1676292;83;21065;-73
2022/12/04 01:48:47;;;;;;;13.47;8.67;;;;;;;-4.51;87.14;102015.44;1678309;83;21115;-75
2022/12/04 01:51:21;;;;;;;18.07;12.07;;;;;;;-4.61;87.44;102016.14;1677213;83;22394;-72
2022/12/04 01:53:54;;;;;;;16.83;9.50;;;;;;;-4.68;87.72;102020.06;1699855;83;21012;-73
2022/12/04 01:56:25;;;;;;;14.80;10.55;;;;;;;-4.63;87.94;102025.88;1687290;83;20971;-74
2022/12/04 01:58:55;;;;;;;14.43;10.80;;;;;;;-4.60;88.11;102019.95;1711498;82;21103;-67
2022/12/04 02:01:22;;;;;;;15.97;10.63;;;;;;;-4.60;88.28;102021.27;1689763;83;22290;-76
2022/12/04 02:03:48;;;;;;;14.60;10.37;;;;;;;-4.63;88.16;102020.16;1693323;82;21144;-75
2022/12/04 02:06:16;;;;;;;22.53;12.07;;;;;;;-4.64;88.48;102025.03;1689111;82;21075;-76
2022/12/04 02:08:44;;;;;;;14.17;10.73;;;;;;;-4.68;88.52;102021.38;1696937;83;20984;-72
2022/12/04 02:11:38;;;;;;;14.50;9.93;;;;;;;-4.72;88.91;102025.13;1679922;84;21020;-74
2022/12/04 02:14:38;;;;;;;16.33;7.83;;;;;;;-4.82;89.35;102020.92;1679146;83;21027;-71
2022/12/04 02:17:31;;;;;;;9.60;8.60;;;;;;;-4.93;89.73;102017.63;1690600;84;21168;-79
2022/12/04 02:20:08;;;;;;;16.40;11.30;;;;;;;-4.97;90.06;102015.28;1713774;82;21123;-75
2022/12/04 02:23:15;;;;;;;15.20;11.73;;;;;;;-4.98;90.28;102014.44;1710288;82;21630;-72
2022/12/04 02:26:04;;;;;;;15.73;10.93;;;;;;;-4.94;90.41;102022.49;1717411;83;21128;-69
2022/12/04 04:42:55;;;;;;;15.73;11.57;;;;;;;-5.74;96.52;102056.13;1741263;81;26743;-69
2022/12/04 04:45:27;;;;;;;17.83;13.33;;;;;;;-5.73;96.34;102051.27;1684555;84;20972;-70
2022/12/04 04:48:04;;;;;;;14.53;10.75;;;;;;;-5.65;96.08;102058.68;1693616;84;21176;-71
2022/12/04 04:50:32;;;;;;;20.37;11.93;;;;;;;-5.61;95.94;102051.05;1687818;84;20955;-70
2022/12/04 04:53:03;;;;;;;14.90;12.23;;;;;;;-5.56;95.71;102055.06;1691873;84;20955;-70
2022/12/04 04:55:33;;;;;;;13.37;10.13;;;;;;;-5.50;95.33;102053.41;1690324;84;20951;-70
2022/12/04 04:58:10;;;;;;;14.33;11.30;;;;;;;-5.45;95.25;102050.52;1693043;84;21161;-69
2022/12/04 05:00:36;;;;;;;18.40;11.20;;;;;;;-5.38;95.15;102049.24;1693672;83;21889;-71
2022/12/04 05:03:03;;;;;;;19.33;11.73;;;;;;;-5.30;94.88;102047.85;1664152;84;21030;-71
2022/12/04 05:05:31;;;;;;;23.00;13.80;;;;;;;-5.24;94.43;102052.36;1664351;84;21003;-71
2022/12/04 05:07:57;;;;;;;23.43;13.50;;;;;;;-5.27;93.90;102056.48;1646705;85;21598;-70
2022/12/04 05:10:24;;;;;;;24.80;13.63;;;;;;;-5.33;93.64;102062.47;1665371;86;21558;-70
2022/12/04 05:12:51;;;;;;;20.13;12.87;;;;;;;-5.32;93.67;102058.89;1665035;85;21242;-72
2022/12/04 05:15:17;;;;;;;15.90;9.30;;;;;;;-5.36;93.19;102063.09;1638322;84;21034;-71
2022/12/04 05:17:43;;;;;;;27.93;14.50;;;;;;;-5.37;93.28;102060.11;1693074;84;21038;-70
2022/12/04 05:20:13;;;;;;;19.50;11.10;;;;;;;-5.39;93.03;102065.44;1693174;84;21095;-71
2022/12/04 05:22:42;;;;;;;28.03;12.27;;;;;;;-5.44;92.97;102071.41;1693165;84;21038;-70
2022/12/04 05:25:09;;;;;;;28.93;15.47;;;;;;;-5.49;93.01;102065.59;1665713;84;21899;-70
2022/12/04 05:27:35;;;;;;;19.60;12.90;;;;;;;-5.49;93.16;102065.59;1693034;83;21582;-70
2022/12/04 05:30:04;;;;;;;10.07;8.07;;;;;;;-5.47;93.28;102065.05;1665122;84;20975;-71
2022/12/04 05:32:31;;;;;;;19.60;12.07;;;;;;;-5.50;93.24;102067.83;1689737;84;21024;-70
2022/12/04 05:34:57;;;;;;;17.90;11.27;;;;;;;-5.48;93.20;102065.13;1689575;84;21782;-69
2022/12/04 05:37:24;;;;;;;18.93;12.50;;;;;;;-5.47;93.02;102070.29;1689466;84;21836;-70
2022/12/04 05:39:50;;;;;;;15.70;11.80;;;;;;;-5.40;93.10;102066.83;1690100;84;21080;-70
2022/12/04 05:42:17;;;;;;;17.10;11.47;;;;;;;-5.42;92.73;102064.28;1682877;84;21054;-70
2022/12/04 05:44:44;;;;;;;18.13;12.13;;;;;;;-5.45;92.69;102072.34;1680014;85;21070;-70
2022/12/04 05:47:10;;;;;;;17.00;10.77;;;;;;;-5.42;92.75;102076.08;1676635;85;21065;-72
2022/12/04 05:49:37;;;;;;;18.13;11.50;;;;;;;-5.42;92.63;102083.95;1650140;85;21075;-71
2022/12/04 05:52:04;;;;;;;16.23;11.77;;;;;;;-5.45;92.52;102080.20;1651996;86;20998;-71
2022/12/04 05:54:30;;;;;;;14.83;10.60;;;;;;;-5.44;92.56;102075.34;1647810;86;21728;-70
2022/12/04 05:56:57;;;;;;;18.73;12.40;;;;;;;-5.42;92.56;102086.58;1662252;85;21063;-71
2022/12/04 05:59:24;;;;;;;13.60;9.70;;;;;;;-5.44;92.30;102078.44;1674709;85;21125;-72
2022/12/04 06:01:51;;;;;;;10.93;9.47;;;;;;;-5.50;92.32;102083.56;1679300;85;22321;-71
2022/12/04 06:04:17;;;;;;;16.30;11.30;;;;;;;-5.48;92.41;102080.86;1656875;85;21543;-71
2022/12/04 06:06:43;;;;;;;14.83;10.00;;;;;;;-5.44;92.39;102077.97;1659788;85;21624;-71
2022/12/04 06:09:10;;;;;;;13.73;10.37;;;;;;;-5.35;92.43;102084.45;1680413;85;21046;-71
2022/12/04 06:11:38;;;;;;;14.73;10.50;;;;;;;-5.31;92.16;102084.19;1652408;85;21121;-71
2022/12/04 06:14:06;;;;;;;16.10;10.20;;;;;;;-5.30;92.06;102083.25;1652247;86;21239;-72
2022/12/04 06:16:37;;;;;;;17.20;10.80;;;;;;;-5.23;92.06;102086.84;1656720;85;21132;-72
2022/12/04 06:19:08;;;;;;;16.00;9.90;;;;;;;-5.17;92.12;102079.44;1666654;85;21086;-72
2022/12/04 06:21:37;;;;;;;14.43;10.90;;;;;;;-5.16;91.72;102092.09;1652249;86;21138;-71
2022/12/04 06:24:04;;;;;;;17.43;12.30;;;;;;;-5.15;91.52;102088.08;1652460;86;21042;-70
2022/12/04 06:26:31;;;;;;;15.30;12.13;;;;;;;-5.19;91.41;102089.66;1668861;85;22268;-70
2022/12/04 06:28:58;;;;;;;17.83;13.17;;;;;;;-5.16;91.60;102095.56;1680371;85;21074;-71
2022/12/04 06:31:27;;;;;;;15.07;11.20;;;;;;;-5.14;91.55;102095.02;1652848;85;21633;-71
2022/12/04 06:33:55;;;;;;;20.90;11.43;;;;;;;-5.12;91.45;102096.22;1679621;85;21562;-71
2022/12/04 06:36:23;;;;;;;15.57;10.77;;;;;;;-5.13;91.28;102105.05;1674138;84;21106;-71
2022/12/04 06:38:56;;;;;;;13.17;10.27;;;;;;;-5.15;91.21;102108.21;1680124;85;21140;-71
2022/12/04 06:41:23;;;;;;;19.60;10.00;;;;;;;-5.25;90.96;102109.67;1681333;83;21108;-71
2022/12/04 06:43:50;;;;;;;15.27;11.63;;;;;;;-5.31;90.96;102113.49;1679729;85;21054;-71
2022/12/04 06:46:24;;;;;;;15.60;9.50;;;;;;;-5.34;91.00;102113.69;1688325;84;21148;-71
2022/12/04 06:48:54;;;;;;;16.03;11.40;;;;;;;-5.31;91.13;102114.34;1679691;85;21123;-71
2022/12/04 06:51:24;;;;;;;13.13;10.73;;;;;;;-5.27;91.06;102109.76;1719212;83;21140;-70
2022/12/04 06:53:51;;;;;;;15.10;9.90;;;;;;;-5.24;90.65;102107.44;1718869;83;21055;-73
2022/12/04 06:56:22;;;;;;;13.57;9.57;;;;;;;-5.29;90.21;102114.27;1703962;83;21086;-71
2022/12/04 06:58:51;;;;;;;15.57;11.87;;;;;;;-5.32;90.16;102124.45;1719124;83;21003;-71
2022/12/04 07:01:21;;;;;;;14.93;10.10;;;;;;;-5.30;89.98;102128.30;1689475;84;21054;-72
2022/12/04 07:03:48;;;;;;;15.57;9.00;;;;;;;-5.28;90.02;102119.89;1680093;85;21144;-71
2022/12/04 07:06:23;;;;;;;17.83;9.10;;;;;;;-5.32;89.48;102119.66;1692026;83;21059;-71
2022/12/04 07:09:12;;;;;;;20.97;9.20;;;;;;;-5.35;89.25;102118.55;1717528;83;21062;-71
2022/12/04 07:11:39;;;;;;;12.07;9.07;;;;;;;-5.39;89.23;102115.72;1713229;83;21071;-72
2022/12/04 07:14:06;;;;;;;12.63;10.13;;;;;;;-5.42;89.10;102110.67;1717425;82;21144;-74
2022/12/04 07:16:33;;;;;;;17.07;10.43;;;;;;;-5.44;88.96;102117.30;1689750;84;21490;-74
2022/12/04 07:18:59;;;;;;;13.33;9.30;;;;;;;-5.41;89.14;102114.95;1688568;84;20983;-70
2022/12/04 07:21:28;;;;;;;17.77;11.17;;;;;;;-5.35;89.03;102127.72;1679604;85;21023;-69
2022/12/04 07:23:56;;;;;;;13.77;9.57;;;;;;;-5.38;88.67;102126.14;1719347;83;21090;-71
2022/12/04 07:26:23;;;;;;;16.67;9.10;;;;;;;-5.42;88.67;102129.02;1688906;84;21147;-71
2022/12/04 07:28:50;;;;;;;18.70;10.93;;;;;;;-5.47;88.73;102126.66;1688576;84;21244;-72
2022/12/04 07:31:20;;;;;;;11.83;9.10;;;;;;;-5.45;88.63;102124.78;1678972;85;21118;-70
2022/12/04 07:33:46;;;;;;;21.17;13.40;;;;;;;-5.44;88.70;102125.63;1719355;82;20963;-72
2022/12/04 07:36:15;;;;;;;16.00;10.57;;;;;;;-5.47;88.49;102129.28;1719525;83;21007;-72
2022/12/04 07:38:41;;;;;;;16.90;10.97;;;;;;;-5.45;88.42;102122.16;1717839;83;21090;-71
2022/12/04 07:41:09;;;;;;;16.90;10.40;;;;;;;-5.43;88.06;102122.08;1718814;82;21107;-72
2022/12/04 07:43:36;;;;;;;15.63;10.90;;;;;;;-5.42;87.89;102119.34;1717223;83;21005;-71
2022/12/04 07:46:10;;;;;;;17.57;10.30;;;;;;;-5.44;87.71;102123.00;1715148;83;21004;-73
2022/12/04 07:48:36;;;;;;;23.90;13.30;;;;;;;-5.47;87.51;102120.11;1721785;82;21028;-72
2022/12/04 07:51:13;;;;;;;19.23;11.07;;;;;;;-5.46;87.51;102124.39;1718591;82;21067;-72
2022/12/04 07:53:40;;;;;;;22.07;12.83;;;;;;;-5.46;87.29;102132.27;1714543;83;21930;-72
2022/12/04 07:56:08;;;;;;;21.93;13.17;;;;;;;-5.48;87.08;102130.67;1719103;83;20988;-75
2022/12/04 07:58:35;;;;;;;21.23;12.83;;;;;;;-5.47;86.92;102132.37;1689177;84;21031;-72
2022/12/04 08:01:08;;;;;;;18.50;12.50;;;;;;;-5.47;86.67;102132.37;1678498;85;21559;-73
2022/12/04 08:03:34;;;;;;;17.13;11.83;;;;;;;-5.48;86.60;102127.59;1703925;82;21024;-73
2022/12/04 08:06:02;;;;;;;19.80;9.77;;;;;;;-5.40;86.82;102124.05;1691331;84;21108;-71
2022/12/04 08:08:29;;;;;;;16.07;11.33;;;;;;;-5.32;86.71;102121.83;1688961;83;21164;-76
2022/12/04 08:10:56;;;;;;;17.33;9.57;;;;;;;-5.27;86.27;102130.73;1719371;83;21037;-72
2022/12/04 08:13:23;;;;;;;13.67;8.97;;;;;;;-5.29;85.93;102130.00;1718810;83;21552;-72
2022/12/04 08:15:50;;;;;;;13.57;9.27;;;;;;;-5.37;85.35;102125.67;1688901;84;21077;-67
2022/12/04 08:18:16;;;;;;;16.40;12.27;;;;;;;-5.43;85.42;102120.77;1688387;84;21457;-71
2022/12/04 08:20:43;;;;;;;19.23;12.57;;;;;;;-5.48;85.28;102126.28;1680059;85;21606;-70
2022/12/04 08:23:09;;;;;;;20.07;13.53;;;;;;;-5.53;85.40;102124.84;1719245;83;21022;-69
2022/12/04 08:25:40;;;;;;;19.20;12.47;;;;;;;-5.57;85.68;102112.84;1717495;83;20953;-69
2022/12/04 08:28:06;;;;;;;12.90;9.13;;;;;;;-5.59;85.69;102112.08;1713980;82;21063;-70
2022/12/04 08:30:34;;;;;;;11.40;9.47;;;;;;;-5.62;85.82;102117.04;1704239;83;21288;-74
2022/12/04 08:33:01;;;;;;;14.87;10.37;;;;;;;-5.66;85.62;102122.54;1708642;82;21567;-70
2022/12/04 08:35:28;;;;;;;13.80;8.90;;;;;;;-5.69;85.78;102129.25;1718819;83;21016;-69
2022/12/04 08:37:55;;;;;;;19.80;10.60;;;;;;;-5.68;85.89;102121.30;1719110;83;20987;-69
2022/12/04 08:40:22;;;;;;;11.37;8.83;;;;;;;-5.65;85.88;102122.89;1647974;84;21047;-70
2022/12/04 08:42:48;;;;;;;9.83;8.00;;;;;;;-5.62;85.98;102114.42;1680741;84;21247;-70
2022/12/04 08:45:15;;;;;;;12.17;9.40;;;;;;;-5.52;85.97;102106.88;1681531;83;21038;-69
2022/12/04 08:47:41;;;;;;;11.03;7.93;;;;;;;-5.49;85.79;102100.13;1718442;83;21076;-69
2022/12/04 08:50:09;;;;;;;12.93;10.07;;;;;;;-5.53;85.25;102106.03;1719418;82;21028;-69
2022/12/04 08:52:36;;;;;;;14.13;8.83;;;;;;;-5.53;85.22;102110.42;1661389;85;21159;-70
2022/12/04 08:55:03;;;;;;;19.13;11.03;;;;;;;-5.45;85.40;102103.80;1677283;83;21169;-70
2022/12/04 08:57:30;;;;;;;12.53;9.27;;;;;;;-5.40;85.11;102104.85;1710905;83;20973;-69
2022/12/04 08:59:56;;;;;;;12.70;9.43;;;;;;;-5.38;85.14;102095.98;1678204;85;21007;-71
2022/12/04 09:02:23;;;;;;;11.70;9.03;;;;;;;-5.32;85.05;102096.91;1695475;84;21080;-69
2022/12/04 09:04:50;;;;;;;14.07;10.57;;;;;;;-5.27;84.74;102091.89;1678789;85;21019;-69
2022/12/04 09:07:16;;;;;;;12.40;9.33;;;;;;;-5.22;84.64;102089.36;1679480;85;21542;-71
2022/12/04 09:09:43;;;;;;;18.60;9.47;;;;;;;-5.15;84.24;102096.41;1722218;82;21071;-71
2022/12/04 09:12:09;;;;;;;9.07;8.17;;;;;;;-5.18;83.68;102092.66;1729492;82;20905;-70
2022/12/04 09:14:36;;;;;;;11.60;7.37;;;;;;;-5.26;83.44;102082.60;1717872;83;20979;-72
2022/12/04 09:17:07;;;;;;;16.97;10.83;;;;;;;-5.33;83.09;102090.00;1719117;83;21090;-72
2022/12/04 09:19:34;;;;;;;14.67;9.70;;;;;;;-5.35;83.34;102092.31;1685016;84;21578;-72
2022/12/04 09:22:01;;;;;;;19.93;10.03;;;;;;;-5.35;83.18;102095.79;1689197;84;21068;-71
2022/12/04 09:24:30;;;;;;;16.07;9.53;;;;;;;-5.32;83.32;102098.69;1689526;83;20979;-71
2022/12/04 09:26:56;;;;;;;15.77;9.23;;;;;;;-5.27;83.23;102094.52;1706052;84;20916;-72
2022/12/04 09:29:24;;;;;;;13.97;8.47;;;;;;;-5.28;82.85;102087.11;1732132;82;21110;-72
2022/12/04 09:31:51;;;;;;;13.47;8.03;;;;;;;-5.21;82.85;102089.73;1718756;83;22344;-71
2022/12/04 09:34:31;;;;;;;20.70;9.83;;;;;;;-5.13;82.49;102085.38;1718209;83;20961;-71
2022/12/04 09:37:07;;;;;;;14.37;7.97;;;;;;;-5.04;82.55;102083.05;1682788;83;21024;-70
2022/12/04 09:39:34;;;;;;;9.47;6.83;;;;;;;-4.90;82.24;102076.97;1729209;82;21047;-70
2022/12/04 09:42:24;;;;;;;11.43;8.70;;;;;;;-4.81;81.21;102083.45;1741184;82;21068;-71
2022/12/04 09:45:11;;;;;;;11.70;7.67;;;;;;;-4.79;80.79;102087.65;1688261;84;21112;-71
2022/12/04 09:47:46;;;;;;;15.77;11.00;;;;;;;-4.75;80.06;102079.14;1689260;83;21016;-70
2022/12/04 09:50:24;;;;;;;12.90;7.80;;;;;;;-4.71;80.08;102079.33;1689412;84;21033;-73
2022/12/04 09:52:58;;;;;;;18.50;8.57;;;;;;;-4.60;80.26;102078.19;1689351;84;21037;-73
2022/12/04 09:55:32;;;;;;;10.87;8.20;;;;;;;-4.44;80.18;102075.84;1688810;84;20969;-74
2022/12/04 09:58:00;;;;;;;18.40;9.50;;;;;;;-4.34;79.19;102080.53;1689839;84;21139;-74
2022/12/04 10:00:28;;;;;;;23.27;11.43;;;;;;;-4.29;78.88;102075.84;1689698;84;21033;-72
2022/12/04 10:03:02;;;;;;;14.10;9.37;;;;;;;-4.17;78.95;102069.33;1689431;84;21063;-73
2022/12/04 10:06:07;;;;;;;16.47;10.93;;;;;;;-4.06;78.75;102072.59;1680724;84;21128;-72
2022/12/04 10:08:37;;;;;;;12.97;9.30;;;;;;;-3.95;77.94;102072.77;1661545;86;21363;-71
2022/12/04 10:11:35;;;;;;;18.70;10.13;;;;;;;-3.82;77.68;102072.34;1669288;84;21169;-75
2022/12/04 10:14:19;;;;;;;20.40;10.37;;;;;;;-3.73;76.95;102074.84;1688475;84;20938;-70
2022/12/04 10:17:20;;;;;;;13.53;9.97;;;;;;;-3.68;76.09;102067.50;1688532;84;21487;-70
2022/12/04 10:20:19;;;;;;;16.07;9.13;;;;;;;-3.66;75.32;102055.95;1678300;84;20994;-71
2022/12/04 10:23:08;;;;;;;11.50;7.77;;;;;;;-3.69;74.92;102053.52;1685801;84;21053;-71
2022/12/04 10:25:35;;;;;;;17.27;9.87;;;;;;;-3.76;74.39;102049.61;1661915;86;21213;-72
2022/12/04 10:28:07;;;;;;;20.83;11.87;;;;;;;-3.74;74.58;102045.08;1649026;86;20987;-71
2022/12/04 10:30:34;;;;;;;15.00;9.30;;;;;;;-3.74;74.22;102037.19;1624462;86;21042;-70
2022/12/04 10:33:21;;;;;;;16.20;9.20;;;;;;;-3.70;74.42;102029.97;1648707;86;21136;-71
2022/12/04 10:35:53;;;;;;;13.53;9.57;;;;;;;-3.66;74.44;102036.23;1649193;86;21073;-73
2022/12/04 10:38:35;;;;;;;19.05;10.50;;;;;;;-3.62;73.65;102023.72;1651072;86;21644;-71
2022/12/04 10:41:16;;;;;;;20.07;10.13;;;;;;;-3.59;73.66;102019.09;1650661;86;21144;-70
2022/12/04 10:43:47;;;;;;;18.83;9.97;;;;;;;-3.52;73.36;102019.07;1647200;85;21012;-70
2022/12/04 10:46:23;;;;;;;21.43;10.50;;;;;;;-3.49;72.86;102025.90;1719470;83;21095;-71
2022/12/04 10:48:57;;;;;;;22.07;8.33;;;;;;;-3.43;72.15;102028.12;1680602;84;21020;-73
2022/12/04 10:51:24;;;;;;;12.20;8.17;;;;;;;-3.37;71.91;102017.67;1678773;85;21780;-71
2022/12/04 10:53:50;;;;;;;19.57;12.03;;;;;;;-3.33;72.01;102016.05;1679749;84;21492;-72
2022/12/04 10:56:23;;;;;;;11.07;7.77;;;;;;;-3.26;70.94;102017.80;1721599;82;21017;-71
2022/12/04 10:59:01;;;;;;;13.87;8.43;;;;;;;-3.18;71.58;101999.22;1718529;83;21060;-72
2022/12/04 11:01:29;;;;;;;16.20;9.93;;;;;;;-2.99;71.78;101997.95;1718347;82;21051;-70
2022/12/04 11:04:03;;;;;;;12.27;9.63;;;;;;;-2.90;70.38;102003.90;1709533;83;21169;-71
2022/12/04 11:06:30;;;;;;;11.10;6.53;;;;;;;-2.91;70.24;101997.79;1708098;83;21106;-70
2022/12/04 11:08:56;;;;;;;10.50;7.50;;;;;;;-2.91;70.16;101991.67;1727262;82;21347;-71
2022/12/04 11:11:29;;;;;;;18.40;8.07;;;;;;;-2.82;70.78;101986.61;1743674;82;21185;-72
2022/12/04 11:14:20;;;;;;;15.20;8.80;;;;;;;-2.65;70.43;101978.86;1717676;83;21064;-73
2022/12/04 11:16:49;;;;;;;11.67;7.20;;;;;;;-2.54;69.33;101985.50;1717501;83;22512;-71
2022/12/04 11:19:27;;;;;;;14.33;7.03;;;;;;;-2.51;68.73;101979.19;1688818;84;21081;-71
2022/12/04 11:22:12;;;;;;;12.93;7.40;;;;;;;-2.56;67.68;101980.83;1678028;85;21011;-70
2022/12/04 11:24:39;;;;;;;13.20;7.23;;;;;;;-2.59;67.92;101976.27;1737633;82;21055;-71
2022/12/04 11:27:06;;;;;;;12.43;6.33;;;;;;;-2.58;67.86;101976.61;1724827;82;21690;-70
2022/12/04 11:29:42;;;;;;;11.67;6.17;;;;;;;-2.54;67.73;101984.19;1717980;83;21808;-71
2022/12/04 11:32:22;;;;;;;14.13;6.20;;;;;;;-2.50;67.42;101976.45;1717373;83;21036;-71
2022/12/04 11:34:50;;;;;;;14.00;6.83;;;;;;;-2.46;67.03;101973.96;1718463;83;21043;-72
2022/12/04 11:37:21;;;;;;;23.40;7.20;;;;;;;-2.39;66.55;101982.25;1734444;82;21001;-70
2022/12/04 11:39:48;;;;;;;16.40;6.80;;;;;;;-2.34;66.61;101978.81;1739186;82;21864;-74
2022/12/04 11:42:19;;;;;;;16.07;7.27;;;;;;;-2.26;66.49;101983.92;1717118;82;21182;-72
2022/12/04 11:44:59;;;;;;;7.90;6.17;;;;;;;-2.17;66.10;101974.97;1736589;82;21032;-69
2022/12/04 11:47:29;;;;;;;8.13;5.77;;;;;;;-2.16;65.99;101976.66;1714888;82;21051;-72
2022/12/04 11:50:02;;;;;;;9.43;5.20;;;;;;;-2.11;65.57;101977.16;1718806;83;21099;-69
2022/12/04 11:52:51;;;;;;;11.27;6.23;;;;;;;-2.17;65.26;101979.77;1709421;83;21094;-71
2022/12/04 11:55:27;;;;;;;20.83;7.43;;;;;;;-2.25;65.61;101973.72;1697033;83;21788;-71
2022/12/04 11:58:14;;;;;;;10.73;6.73;;;;;;;-2.33;65.73;101969.48;1712324;82;21015;-72
2022/12/04 12:00:55;;;;;;;22.67;6.63;;;;;;;-2.28;66.00;101965.20;1718370;83;20983;-71
2022/12/04 12:03:32;;;;;;;16.23;8.33;;;;;;;-2.28;65.67;101962.09;1718819;83;21067;-70
2022/12/04 12:06:27;;;;;;;17.83;8.07;;;;;;;-2.28;66.11;101966.52;1717559;83;21063;-71
2022/12/04 12:09:20;;;;;;;14.03;8.07;;;;;;;-2.26;65.82;101962.83;1690248;84;21166;-69
2022/12/04 12:12:03;;;;;;;11.33;5.22;;;;;;;-2.23;65.78;101962.59;1689138;84;20963;-72
2022/12/04 12:14:56;;;;;;;8.18;6.37;;;;;;;-2.28;65.48;101961.25;1701385;83;21035;-71
2022/12/04 12:17:26;;;;;;;;;;;;;;;-2.27;66.05;101970.84;1692404;83;21059;-70
2022/12/04 12:20:05;;;;;;;9.90;6.20;;;;;;;-2.31;65.79;101972.86;1719477;83;20184;-71
2022/12/04 12:23:05;;;;;;;9.13;7.00;;;;;;;-2.40;66.14;101969.55;1718401;83;22157;-70
2022/12/04 12:26:02;;;;;;;10.30;8.13;;;;;;;-2.43;66.68;101975.05;1712102;82;21039;-70
2022/12/04 12:28:37;;;;;;;13.60;8.50;;;;;;;-2.32;66.86;101970.33;1714685;82;21548;-70
2022/12/04 12:31:47;;;;;;;11.97;9.57;;;;;;;-2.23;66.49;101977.09;1689640;84;21052;-71
2022/12/04 12:34:28;;;;;;;14.73;6.97;;;;;;;-2.28;66.49;101973.11;1679339;84;21103;-70
2022/12/04 12:36:56;;;;;;;14.87;7.57;;;;;;;-2.26;66.90;101973.38;1678831;83;21131;-72
2022/12/04 12:39:27;;;;;;;19.53;8.07;;;;;;;-2.20;66.98;101972.91;1721148;82;21070;-70
2022/12/04 12:41:56;;;;;;;22.47;11.37;;;;;;;-2.12;66.66;101975.48;1701156;82;21095;-70
2022/12/04 12:44:34;;;;;;;13.90;8.50;;;;;;;-2.15;66.63;101968.61;1704696;83;21063;-70
2022/12/04 12:47:11;;;;;;;15.77;8.07;;;;;;;-2.10;66.79;101968.28;1691992;84;21048;-71
2022/12/04 12:50:03;;;;;;;13.73;8.30;;;;;;;-2.04;66.75;101977.06;1707093;81;21599;-70
2022/12/04 12:53:10;;;;;;;15.83;8.80;;;;;;;-1.97;66.69;101964.66;1706210;82;21056;-71
2022/12/04 12:55:48;;;;;;;13.37;7.17;;;;;;;-1.88;66.35;101961.33;1716655;81;21079;-74
2022/12/04 12:58:33;;;;;;;16.80;6.83;;;;;;;-1.77;66.46;101952.13;1717242;83;21520;-72
2022/12/04 13:01:12;;;;;;;11.43;7.70;;;;;;;-1.77;65.51;101959.19;1709154;83;21483;-70
2022/12/04 13:04:03;;;;;;;14.33;8.90;;;;;;;-1.94;65.56;101965.73;1721677;83;21153;-71
2022/12/04 13:06:42;;;;;;;18.27;11.40;;;;;;;-2.10;66.00;101965.64;1719740;81;21027;-69
2022/12/04 13:09:32;;;;;;;25.00;12.00;;;;;;;-2.12;66.59;101968.88;1719729;83;21180;-72
2022/12/04 13:12:02;;;;;;;16.93;12.40;;;;;;;-2.09;66.65;101972.13;1718750;83;21533;-68
2022/12/04 13:14:29;;;;;;;17.27;11.33;;;;;;;-2.10;67.06;101978.35;1720329;82;21595;-67
2022/12/04 13:17:02;;;;;;;17.33;7.87;;;;;;;-2.15;67.01;101977.84;1717773;83;21273;-69
2022/12/04 13:19:42;;;;;;;15.30;7.40;;;;;;;-2.22;67.23;101973.52;1716642;83;21619;-68
2022/12/04 13:22:27;;;;;;;12.83;8.53;;;;;;;-2.20;67.36;101966.79;1721314;81;21042;-68
2022/12/04 13:25:18;;;;;;;13.30;8.10;;;;;;;-2.15;67.26;101981.80;1721698;83;21153;-70
2022/12/04 13:27:59;;;;;;;10.37;6.57;;;;;;;-2.22;67.18;101972.66;1720546;82;21567;-68
2022/12/04 13:31:03;;;;;;;20.47;9.23;;;;;;;-2.25;67.53;101976.82;1713435;81;21336;-69
2022/12/04 13:33:47;;;;;;;15.97;8.63;;;;;;;-2.30;67.58;101982.43;1699039;83;21658;-68
2022/12/04 13:36:42;;;;;;;9.77;6.93;;;;;;;-2.29;67.71;101979.32;1715240;83;21152;-69
2022/12/04 13:39:35;;;;;;;19.30;10.60;;;;;;;-2.33;67.83;101977.39;1738053;81;20999;-70
2022/12/04 13:42:04;;;;;;;22.45;11.97;;;;;;;-2.32;68.15;101978.23;1716911;83;21132;-71
2022/12/04 13:44:31;;;;;;;25.47;16.27;;;;;;;-2.23;68.10;101981.05;1719233;82;21225;-70
2022/12/04 13:47:05;;;;;;;32.60;19.17;;;;;;;-2.16;67.83;101979.30;1718923;83;21658;-68
2022/12/04 13:49:36;;;;;;;29.37;14.57;;;;;;;-2.13;67.62;101979.06;1716153;82;21028;-70
2022/12/04 13:52:05;;;;;;;29.13;12.67;;;;;;;-2.14;67.54;101983.48;1718521;82;21052;-70
2022/12/04 13:54:34;;;;;;;32.07;17.07;;;;;;;-2.12;67.31;101989.97;1663684;85;21081;-69
2022/12/04 13:57:20;;;;;;;32.13;14.00;;;;;;;-2.16;67.10;101990.69;1670010;84;21780;-68